sensor_id;sensor_type;location;lat;lon;timestamp;P1;durP1;ratioP1;P2;durP2;ratioP2
26277;SDS011;14000;52.056;8.510;2024-02-15T00:00:37;45.50;;;27.67;;
26277;SDS011;14000;52.056;8.510;2024-02-15T00:03:03;38.13;;;24.57;;
26277;SDS011;14000;52.056;8.510;2024-02-15T00:05:32;38.63;;;23.83;;
26277;SDS011;14000;52.056;8.510;2024-02-15T00:07:59;44.43;;;24.80;;
26277;SDS011;14000;52.056;8.510;2024-02-15T00:10:25;36.90;;;22.30;;
26277;SDS011;14000;52.056;8.510;2024-02-15T00:12:50;38.80;;;23.97;;
26277;SDS011;14000;52.056;8.510;2024-02-15T00:15:16;36.33;;;23.07;;
26277;SDS011;14000;52.056;8.510;2024-02-15T00:17:42;40.83;;;25.13;;
26277;SDS011;14000;52.056;8.510;2024-02-15T00:20:07;42.80;;;25.17;;
26277;SDS011;14000;52.056;8.510;2024-02-15T00:22:35;37.83;;;22.17;;
26277;SDS011;14000;52.056;8.510;2024-02-15T00:25:01;40.57;;;24.10;;
26277;SDS011;14000;52.056;8.510;2024-02-15T00:27:27;35.17;;;22.67;;
26277;SDS011;14000;52.056;8.510;2024-02-15T00:29:53;36.20;;;23.10;;
26277;SDS011;14000;52.056;8.510;2024-02-15T00:32:18;34.83;;;21.90;;
26277;SDS011;14000;52.056;8.510;2024-02-15T00:34:44;38.27;;;23.73;;
26277;SDS011;14000;52.056;8.510;2024-02-15T00:37:10;38.57;;;22.97;;
26277;SDS011;14000;52.056;8.510;2024-02-15T00:39:35;36.97;;;23.70;;
26277;SDS011;14000;52.056;8.510;2024-02-15T00:42:01;41.70;;;24.40;;
26277;SDS011;14000;52.056;8.510;2024-02-15T00:44:27;40.37;;;22.87;;
26277;SDS011;14000;52.056;8.510;2024-02-15T00:46:52;42.13;;;25.00;;
26277;SDS011;14000;52.056;8.510;2024-02-15T00:49:18;38.60;;;24.90;;
26277;SDS011;14000;52.056;8.510;2024-02-15T00:51:45;42.13;;;24.97;;
26277;SDS011;14000;52.056;8.510;2024-02-15T00:54:11;44.07;;;25.83;;
26277;SDS011;14000;52.056;8.510;2024-02-15T00:56:37;40.27;;;25.60;;
26277;SDS011;14000;52.056;8.510;2024-02-15T00:59:02;43.93;;;26.40;;
26277;SDS011;14000;52.056;8.510;2024-02-15T01:01:30;44.13;;;27.27;;
26277;SDS011;14000;52.056;8.510;2024-02-15T01:03:56;45.20;;;27.97;;
26277;SDS011;14000;52.056;8.510;2024-02-15T01:06:21;60.47;;;30.43;;
26277;SDS011;14000;52.056;8.510;2024-02-15T01:08:47;45.03;;;27.80;;
26277;SDS011;14000;52.056;8.510;2024-02-15T01:11:12;47.43;;;28.07;;
26277;SDS011;14000;52.056;8.510;2024-02-15T01:13:38;50.00;;;28.50;;
26277;SDS011;14000;52.056;8.510;2024-02-15T01:16:04;47.23;;;28.73;;
26277;SDS011;14000;52.056;8.510;2024-02-15T01:18:30;49.50;;;29.23;;
26277;SDS011;14000;52.056;8.510;2024-02-15T01:20:56;44.77;;;28.17;;
26277;SDS011;14000;52.056;8.510;2024-02-15T01:23:22;44.80;;;28.77;;
26277;SDS011;14000;52.056;8.510;2024-02-15T01:25:48;44.40;;;27.77;;
26277;SDS011;14000;52.056;8.510;2024-02-15T01:28:14;56.77;;;30.93;;
26277;SDS011;14000;52.056;8.510;2024-02-15T01:30:39;50.77;;;31.47;;
26277;SDS011;14000;52.056;8.510;2024-02-15T01:33:05;47.93;;;29.67;;
26277;SDS011;14000;52.056;8.510;2024-02-15T01:35:31;48.60;;;29.97;;
26277;SDS011;14000;52.056;8.510;2024-02-15T01:37:56;49.30;;;29.60;;
26277;SDS011;14000;52.056;8.510;2024-02-15T01:40:22;51.50;;;30.83;;
26277;SDS011;14000;52.056;8.510;2024-02-15T01:42:47;49.50;;;29.90;;
26277;SDS011;14000;52.056;8.510;2024-02-15T01:45:15;49.23;;;30.53;;
26277;SDS011;14000;52.056;8.510;2024-02-15T01:47:41;51.53;;;29.37;;
26277;SDS011;14000;52.056;8.510;2024-02-15T01:50:07;50.13;;;29.50;;
26277;SDS011;14000;52.056;8.510;2024-02-15T01:52:37;52.60;;;30.40;;
26277;SDS011;14000;52.056;8.510;2024-02-15T01:55:04;51.07;;;30.27;;
26277;SDS011;14000;52.056;8.510;2024-02-15T01:57:35;46.87;;;28.70;;
26277;SDS011;14000;52.056;8.510;2024-02-15T02:00:03;59.07;;;31.83;;
26277;SDS011;14000;52.056;8.510;2024-02-15T02:02:30;56.13;;;31.07;;
26277;SDS011;14000;52.056;8.510;2024-02-15T02:04:59;46.70;;;28.10;;
26277;SDS011;14000;52.056;8.510;2024-02-15T02:07:25;54.33;;;29.13;;
26277;SDS011;14000;52.056;8.510;2024-02-15T02:09:51;47.47;;;27.93;;
26277;SDS011;14000;52.056;8.510;2024-02-15T02:12:16;52.17;;;30.17;;
26277;SDS011;14000;52.056;8.510;2024-02-15T02:14:43;55.67;;;29.83;;
26277;SDS011;14000;52.056;8.510;2024-02-15T02:17:15;51.20;;;27.23;;
26277;SDS011;14000;52.056;8.510;2024-02-15T02:19:43;51.70;;;28.73;;
26277;SDS011;14000;52.056;8.510;2024-02-15T02:22:09;46.73;;;26.87;;
26277;SDS011;14000;52.056;8.510;2024-02-15T02:24:40;48.30;;;27.43;;
26277;SDS011;14000;52.056;8.510;2024-02-15T02:27:13;54.13;;;29.17;;
26277;SDS011;14000;52.056;8.510;2024-02-15T02:29:43;61.80;;;31.63;;
26277;SDS011;14000;52.056;8.510;2024-02-15T02:32:11;48.60;;;30.10;;
26277;SDS011;14000;52.056;8.510;2024-02-15T02:34:37;50.07;;;28.50;;
26277;SDS011;14000;52.056;8.510;2024-02-15T02:37:03;45.10;;;27.17;;
26277;SDS011;14000;52.056;8.510;2024-02-15T02:39:30;39.87;;;24.37;;
26277;SDS011;14000;52.056;8.510;2024-02-15T02:41:56;38.97;;;23.67;;
26277;SDS011;14000;52.056;8.510;2024-02-15T02:44:22;36.53;;;22.80;;
26277;SDS011;14000;52.056;8.510;2024-02-15T02:46:48;44.80;;;25.57;;
26277;SDS011;14000;52.056;8.510;2024-02-15T02:49:13;41.13;;;24.80;;
26277;SDS011;14000;52.056;8.510;2024-02-15T02:51:39;45.20;;;25.03;;
26277;SDS011;14000;52.056;8.510;2024-02-15T02:54:04;55.23;;;28.87;;
26277;SDS011;14000;52.056;8.510;2024-02-15T02:56:34;45.23;;;26.43;;
26277;SDS011;14000;52.056;8.510;2024-02-15T02:59:00;46.80;;;27.67;;
26277;SDS011;14000;52.056;8.510;2024-02-15T03:01:25;51.17;;;29.60;;
26277;SDS011;14000;52.056;8.510;2024-02-15T03:03:51;51.70;;;30.47;;
26277;SDS011;14000;52.056;8.510;2024-02-15T03:06:21;52.27;;;30.53;;
26277;SDS011;14000;52.056;8.510;2024-02-15T03:08:49;58.90;;;31.27;;
26277;SDS011;14000;52.056;8.510;2024-02-15T03:11:19;55.93;;;30.97;;
26277;SDS011;14000;52.056;8.510;2024-02-15T03:13:44;58.83;;;31.50;;
26277;SDS011;14000;52.056;8.510;2024-02-15T03:16:10;58.57;;;30.13;;
26277;SDS011;14000;52.056;8.510;2024-02-15T03:18:36;52.77;;;29.23;;
26277;SDS011;14000;52.056;8.510;2024-02-15T03:21:01;54.00;;;28.43;;
26277;SDS011;14000;52.056;8.510;2024-02-15T03:23:27;48.10;;;28.33;;
26277;SDS011;14000;52.056;8.510;2024-02-15T03:25:53;50.60;;;28.00;;
26277;SDS011;14000;52.056;8.510;2024-02-15T03:28:19;59.07;;;32.30;;
26277;SDS011;14000;52.056;8.510;2024-02-15T03:30:46;56.53;;;32.53;;
26277;SDS011;14000;52.056;8.510;2024-02-15T03:33:12;67.23;;;36.37;;
26277;SDS011;14000;52.056;8.510;2024-02-15T03:35:38;72.70;;;37.27;;
26277;SDS011;14000;52.056;8.510;2024-02-15T03:38:04;64.90;;;35.63;;
26277;SDS011;14000;52.056;8.510;2024-02-15T03:40:30;67.40;;;37.90;;
26277;SDS011;14000;52.056;8.510;2024-02-15T03:42:57;68.37;;;38.23;;
26277;SDS011;14000;52.056;8.510;2024-02-15T03:45:22;71.50;;;37.80;;
26277;SDS011;14000;52.056;8.510;2024-02-15T03:47:50;77.40;;;40.90;;
26277;SDS011;14000;52.056;8.510;2024-02-15T03:50:20;74.23;;;39.93;;
26277;SDS011;14000;52.056;8.510;2024-02-15T03:52:49;80.70;;;40.80;;
26277;SDS011;14000;52.056;8.510;2024-02-15T03:55:15;76.00;;;39.07;;
26277;SDS011;14000;52.056;8.510;2024-02-15T03:57:41;81.60;;;41.13;;
26277;SDS011;14000;52.056;8.510;2024-02-15T04:00:11;73.77;;;39.40;;
26277;SDS011;14000;52.056;8.510;2024-02-15T04:02:45;96.80;;;43.60;;
26277;SDS011;14000;52.056;8.510;2024-02-15T04:05:12;99.33;;;44.43;;
26277;SDS011;14000;52.056;8.510;2024-02-15T04:07:38;72.43;;;41.00;;
26277;SDS011;14000;52.056;8.510;2024-02-15T04:10:06;78.60;;;41.43;;
26277;SDS011;14000;52.056;8.510;2024-02-15T04:12:33;83.67;;;42.17;;
26277;SDS011;14000;52.056;8.510;2024-02-15T04:14:59;79.60;;;41.50;;
26277;SDS011;14000;52.056;8.510;2024-02-15T04:17:30;82.03;;;42.83;;
26277;SDS011;14000;52.056;8.510;2024-02-15T04:19:59;76.97;;;41.90;;
26277;SDS011;14000;52.056;8.510;2024-02-15T04:22:25;80.07;;;41.10;;
26277;SDS011;14000;52.056;8.510;2024-02-15T04:24:50;81.93;;;40.50;;
26277;SDS011;14000;52.056;8.510;2024-02-15T04:27:16;78.13;;;37.73;;
26277;SDS011;14000;52.056;8.510;2024-02-15T04:29:45;69.13;;;36.63;;
26277;SDS011;14000;52.056;8.510;2024-02-15T04:32:12;70.83;;;35.57;;
26277;SDS011;14000;52.056;8.510;2024-02-15T04:34:38;71.43;;;35.60;;
26277;SDS011;14000;52.056;8.510;2024-02-15T04:37:04;74.70;;;36.43;;
26277;SDS011;14000;52.056;8.510;2024-02-15T04:39:34;60.27;;;33.13;;
26277;SDS011;14000;52.056;8.510;2024-02-15T04:42:00;58.83;;;32.47;;
26277;SDS011;14000;52.056;8.510;2024-02-15T04:44:27;56.00;;;32.13;;
26277;SDS011;14000;52.056;8.510;2024-02-15T04:46:53;55.53;;;32.90;;
26277;SDS011;14000;52.056;8.510;2024-02-15T04:49:19;58.47;;;30.83;;
26277;SDS011;14000;52.056;8.510;2024-02-15T04:51:45;61.87;;;31.80;;
26277;SDS011;14000;52.056;8.510;2024-02-15T04:54:12;65.47;;;32.83;;
26277;SDS011;14000;52.056;8.510;2024-02-15T04:56:41;59.73;;;32.97;;
26277;SDS011;14000;52.056;8.510;2024-02-15T04:59:07;65.93;;;33.63;;
26277;SDS011;14000;52.056;8.510;2024-02-15T05:01:34;65.67;;;32.60;;
26277;SDS011;14000;52.056;8.510;2024-02-15T05:04:00;63.07;;;32.17;;
26277;SDS011;14000;52.056;8.510;2024-02-15T05:06:32;63.73;;;32.97;;
26277;SDS011;14000;52.056;8.510;2024-02-15T05:08:58;60.90;;;32.87;;
26277;SDS011;14000;52.056;8.510;2024-02-15T05:11:25;60.50;;;31.67;;
26277;SDS011;14000;52.056;8.510;2024-02-15T05:13:51;70.57;;;34.23;;
26277;SDS011;14000;52.056;8.510;2024-02-15T05:16:17;66.60;;;33.00;;
26277;SDS011;14000;52.056;8.510;2024-02-15T05:18:43;61.70;;;31.87;;
26277;SDS011;14000;52.056;8.510;2024-02-15T05:21:10;56.00;;;30.87;;
26277;SDS011;14000;52.056;8.510;2024-02-15T05:23:36;57.33;;;30.90;;
26277;SDS011;14000;52.056;8.510;2024-02-15T05:26:04;51.40;;;29.27;;
26277;SDS011;14000;52.056;8.510;2024-02-15T05:28:33;57.40;;;30.33;;
26277;SDS011;14000;52.056;8.510;2024-02-15T05:31:12;51.47;;;27.77;;
26277;SDS011;14000;52.056;8.510;2024-02-15T05:33:41;68.77;;;30.90;;
26277;SDS011;14000;52.056;8.510;2024-02-15T05:36:16;51.67;;;28.20;;
26277;SDS011;14000;52.056;8.510;2024-02-15T05:38:49;48.10;;;27.23;;
26277;SDS011;14000;52.056;8.510;2024-02-15T05:41:16;42.00;;;25.33;;
26277;SDS011;14000;52.056;8.510;2024-02-15T05:43:42;45.20;;;25.00;;
26277;SDS011;14000;52.056;8.510;2024-02-15T05:46:08;60.70;;;29.67;;
26277;SDS011;14000;52.056;8.510;2024-02-15T05:48:35;44.37;;;25.03;;
26277;SDS011;14000;52.056;8.510;2024-02-15T05:51:02;42.97;;;23.43;;
26277;SDS011;14000;52.056;8.510;2024-02-15T05:53:28;36.73;;;23.53;;
26277;SDS011;14000;52.056;8.510;2024-02-15T05:55:54;44.17;;;24.93;;
26277;SDS011;14000;52.056;8.510;2024-02-15T05:58:20;38.37;;;22.33;;
26277;SDS011;14000;52.056;8.510;2024-02-15T06:00:46;60.73;;;28.67;;
26277;SDS011;14000;52.056;8.510;2024-02-15T06:03:15;38.40;;;22.33;;
26277;SDS011;14000;52.056;8.510;2024-02-15T06:05:41;37.03;;;22.80;;
26277;SDS011;14000;52.056;8.510;2024-02-15T06:08:07;34.63;;;21.70;;
26277;SDS011;14000;52.056;8.510;2024-02-15T06:10:33;39.37;;;22.60;;
26277;SDS011;14000;52.056;8.510;2024-02-15T06:12:59;40.80;;;23.40;;
26277;SDS011;14000;52.056;8.510;2024-02-15T06:15:24;45.50;;;24.60;;
26277;SDS011;14000;52.056;8.510;2024-02-15T06:17:50;63.03;;;28.73;;
26277;SDS011;14000;52.056;8.510;2024-02-15T06:20:17;41.30;;;21.93;;
26277;SDS011;14000;52.056;8.510;2024-02-15T06:22:46;38.03;;;22.00;;
26277;SDS011;14000;52.056;8.510;2024-02-15T06:25:12;43.53;;;23.27;;
26277;SDS011;14000;52.056;8.510;2024-02-15T06:27:40;34.07;;;20.67;;
26277;SDS011;14000;52.056;8.510;2024-02-15T06:30:10;46.33;;;23.47;;
26277;SDS011;14000;52.056;8.510;2024-02-15T06:32:55;35.10;;;20.03;;
26277;SDS011;14000;52.056;8.510;2024-02-15T06:35:40;30.63;;;18.13;;
26277;SDS011;14000;52.056;8.510;2024-02-15T06:38:24;32.37;;;18.83;;
26277;SDS011;14000;52.056;8.510;2024-02-15T06:41:08;39.90;;;20.43;;
26277;SDS011;14000;52.056;8.510;2024-02-15T06:43:34;34.93;;;18.93;;
26277;SDS011;14000;52.056;8.510;2024-02-15T06:46:00;33.33;;;19.00;;
26277;SDS011;14000;52.056;8.510;2024-02-15T06:48:27;27.03;;;17.13;;
26277;SDS011;14000;52.056;8.510;2024-02-15T06:50:53;36.97;;;20.07;;
26277;SDS011;14000;52.056;8.510;2024-02-15T06:53:19;38.80;;;19.50;;
26277;SDS011;14000;52.056;8.510;2024-02-15T06:55:48;28.73;;;15.73;;
26277;SDS011;14000;52.056;8.510;2024-02-15T06:58:14;26.90;;;15.67;;
26277;SDS011;14000;52.056;8.510;2024-02-15T07:00:41;29.20;;;15.97;;
26277;SDS011;14000;52.056;8.510;2024-02-15T07:03:07;24.43;;;14.33;;
26277;SDS011;14000;52.056;8.510;2024-02-15T07:05:34;33.77;;;16.43;;
26277;SDS011;14000;52.056;8.510;2024-02-15T07:07:59;33.70;;;16.80;;
26277;SDS011;14000;52.056;8.510;2024-02-15T07:10:26;29.87;;;14.73;;
26277;SDS011;14000;52.056;8.510;2024-02-15T07:12:51;31.23;;;15.93;;
26277;SDS011;14000;52.056;8.510;2024-02-15T07:15:17;28.93;;;15.00;;
26277;SDS011;14000;52.056;8.510;2024-02-15T07:17:43;27.47;;;14.33;;
26277;SDS011;14000;52.056;8.510;2024-02-15T07:20:10;28.33;;;13.23;;
26277;SDS011;14000;52.056;8.510;2024-02-15T07:22:39;25.53;;;13.20;;
26277;SDS011;14000;52.056;8.510;2024-02-15T07:25:04;28.40;;;14.57;;
26277;SDS011;14000;52.056;8.510;2024-02-15T07:27:30;29.23;;;13.07;;
26277;SDS011;14000;52.056;8.510;2024-02-15T07:29:59;22.60;;;12.57;;
26277;SDS011;14000;52.056;8.510;2024-02-15T07:32:25;20.47;;;10.93;;
26277;SDS011;14000;52.056;8.510;2024-02-15T07:34:51;21.87;;;11.13;;
26277;SDS011;14000;52.056;8.510;2024-02-15T07:37:17;26.67;;;12.80;;
26277;SDS011;14000;52.056;8.510;2024-02-15T07:39:43;21.73;;;11.73;;
26277;SDS011;14000;52.056;8.510;2024-02-15T07:42:08;20.37;;;10.30;;
26277;SDS011;14000;52.056;8.510;2024-02-15T07:44:34;24.40;;;13.00;;
26277;SDS011;14000;52.056;8.510;2024-02-15T07:47:01;26.97;;;11.53;;
26277;SDS011;14000;52.056;8.510;2024-02-15T07:49:28;21.00;;;10.40;;
26277;SDS011;14000;52.056;8.510;2024-02-15T07:51:53;26.23;;;11.90;;
26277;SDS011;14000;52.056;8.510;2024-02-15T07:54:19;24.63;;;11.77;;
26277;SDS011;14000;52.056;8.510;2024-02-15T07:56:48;24.17;;;10.30;;
26277;SDS011;14000;52.056;8.510;2024-02-15T07:59:14;22.93;;;10.83;;
26277;SDS011;14000;52.056;8.510;2024-02-15T08:01:41;22.93;;;11.33;;
26277;SDS011;14000;52.056;8.510;2024-02-15T08:04:08;27.03;;;13.03;;
26277;SDS011;14000;52.056;8.510;2024-02-15T08:06:34;27.37;;;12.00;;
26277;SDS011;14000;52.056;8.510;2024-02-15T08:09:02;21.57;;;9.57;;
26277;SDS011;14000;52.056;8.510;2024-02-15T08:11:30;19.23;;;10.00;;
26277;SDS011;14000;52.056;8.510;2024-02-15T08:13:56;18.07;;;9.43;;
26277;SDS011;14000;52.056;8.510;2024-02-15T08:16:24;20.40;;;9.87;;
26277;SDS011;14000;52.056;8.510;2024-02-15T08:18:53;20.63;;;9.20;;
26277;SDS011;14000;52.056;8.510;2024-02-15T08:23:58;23.17;;;9.47;;
26277;SDS011;14000;52.056;8.510;2024-02-15T08:26:37;20.03;;;10.20;;
26277;SDS011;14000;52.056;8.510;2024-02-15T08:29:04;22.10;;;11.23;;
26277;SDS011;14000;52.056;8.510;2024-02-15T08:31:31;16.50;;;8.40;;
26277;SDS011;14000;52.056;8.510;2024-02-15T08:33:57;18.97;;;9.53;;
26277;SDS011;14000;52.056;8.510;2024-02-15T08:36:23;17.23;;;9.33;;
26277;SDS011;14000;52.056;8.510;2024-02-15T08:38:49;18.27;;;9.23;;
26277;SDS011;14000;52.056;8.510;2024-02-15T08:41:15;21.43;;;10.07;;
26277;SDS011;14000;52.056;8.510;2024-02-15T08:43:42;22.70;;;10.63;;
26277;SDS011;14000;52.056;8.510;2024-02-15T08:46:08;24.57;;;9.60;;
26277;SDS011;14000;52.056;8.510;2024-02-15T08:48:35;24.37;;;9.50;;
26277;SDS011;14000;52.056;8.510;2024-02-15T08:51:01;21.13;;;9.87;;
26277;SDS011;14000;52.056;8.510;2024-02-15T08:53:27;18.43;;;8.93;;
26277;SDS011;14000;52.056;8.510;2024-02-15T08:55:52;22.63;;;10.83;;
26277;SDS011;14000;52.056;8.510;2024-02-15T08:58:19;21.87;;;10.87;;
26277;SDS011;14000;52.056;8.510;2024-02-15T09:00:46;18.53;;;9.10;;
26277;SDS011;14000;52.056;8.510;2024-02-15T09:03:11;22.00;;;10.50;;
26277;SDS011;14000;52.056;8.510;2024-02-15T09:05:38;19.40;;;9.43;;
26277;SDS011;14000;52.056;8.510;2024-02-15T09:08:05;24.17;;;9.50;;
26277;SDS011;14000;52.056;8.510;2024-02-15T09:10:31;18.77;;;9.30;;
26277;SDS011;14000;52.056;8.510;2024-02-15T09:12:57;20.93;;;9.77;;
26277;SDS011;14000;52.056;8.510;2024-02-15T09:15:22;23.43;;;10.93;;
26277;SDS011;14000;52.056;8.510;2024-02-15T09:17:48;20.87;;;11.43;;
26277;SDS011;14000;52.056;8.510;2024-02-15T09:20:14;19.10;;;9.50;;
26277;SDS011;14000;52.056;8.510;2024-02-15T09:22:43;19.73;;;9.27;;
26277;SDS011;14000;52.056;8.510;2024-02-15T09:25:16;14.03;;;8.27;;
26277;SDS011;14000;52.056;8.510;2024-02-15T09:27:42;19.73;;;10.27;;
26277;SDS011;14000;52.056;8.510;2024-02-15T09:30:09;19.83;;;9.40;;
26277;SDS011;14000;52.056;8.510;2024-02-15T09:32:41;17.37;;;9.07;;
26277;SDS011;14000;52.056;8.510;2024-02-15T09:35:08;15.93;;;9.17;;
26277;SDS011;14000;52.056;8.510;2024-02-15T09:37:37;17.40;;;8.53;;
26277;SDS011;14000;52.056;8.510;2024-02-15T09:40:13;17.10;;;8.87;;
26277;SDS011;14000;52.056;8.510;2024-02-15T09:42:41;16.33;;;8.03;;
26277;SDS011;14000;52.056;8.510;2024-02-15T09:45:07;16.37;;;7.97;;
26277;SDS011;14000;52.056;8.510;2024-02-15T09:47:36;15.67;;;7.60;;
26277;SDS011;14000;52.056;8.510;2024-02-15T09:50:04;17.97;;;7.80;;
26277;SDS011;14000;52.056;8.510;2024-02-15T09:52:39;17.20;;;8.07;;
26277;SDS011;14000;52.056;8.510;2024-02-15T09:55:05;16.93;;;8.50;;
26277;SDS011;14000;52.056;8.510;2024-02-15T09:57:38;18.53;;;8.50;;
26277;SDS011;14000;52.056;8.510;2024-02-15T10:00:06;21.03;;;8.23;;
26277;SDS011;14000;52.056;8.510;2024-02-15T10:02:33;16.80;;;8.73;;
26277;SDS011;14000;52.056;8.510;2024-02-15T10:05:03;18.10;;;9.20;;
26277;SDS011;14000;52.056;8.510;2024-02-15T10:07:29;16.13;;;8.13;;
26277;SDS011;14000;52.056;8.510;2024-02-15T10:09:55;19.03;;;8.90;;
26277;SDS011;14000;52.056;8.510;2024-02-15T10:12:21;18.00;;;9.97;;
26277;SDS011;14000;52.056;8.510;2024-02-15T10:14:48;24.30;;;11.17;;
26277;SDS011;14000;52.056;8.510;2024-02-15T10:17:15;18.57;;;9.13;;
26277;SDS011;14000;52.056;8.510;2024-02-15T10:19:42;18.53;;;9.00;;
26277;SDS011;14000;52.056;8.510;2024-02-15T10:22:09;20.90;;;9.57;;
26277;SDS011;14000;52.056;8.510;2024-02-15T10:24:36;19.07;;;8.77;;
26277;SDS011;14000;52.056;8.510;2024-02-15T10:27:04;15.93;;;8.60;;
26277;SDS011;14000;52.056;8.510;2024-02-15T10:29:32;18.33;;;9.00;;
26277;SDS011;14000;52.056;8.510;2024-02-15T10:32:01;20.53;;;9.50;;
26277;SDS011;14000;52.056;8.510;2024-02-15T10:34:28;22.07;;;9.43;;
26277;SDS011;14000;52.056;8.510;2024-02-15T10:36:54;19.47;;;8.87;;
26277;SDS011;14000;52.056;8.510;2024-02-15T10:39:22;18.20;;;8.57;;
26277;SDS011;14000;52.056;8.510;2024-02-15T10:44:16;19.07;;;9.30;;
26277;SDS011;14000;52.056;8.510;2024-02-15T10:46:44;14.93;;;8.40;;
26277;SDS011;14000;52.056;8.510;2024-02-15T10:49:12;16.03;;;9.00;;
26277;SDS011;14000;52.056;8.510;2024-02-15T10:51:39;21.80;;;11.33;;
26277;SDS011;14000;52.056;8.510;2024-02-15T10:54:10;20.03;;;10.03;;
26277;SDS011;14000;52.056;8.510;2024-02-15T10:56:42;19.53;;;10.60;;
26277;SDS011;14000;52.056;8.510;2024-02-15T10:59:18;23.63;;;11.30;;
26277;SDS011;14000;52.056;8.510;2024-02-15T11:01:47;19.00;;;9.57;;
26277;SDS011;14000;52.056;8.510;2024-02-15T11:04:19;22.90;;;11.27;;
26277;SDS011;14000;52.056;8.510;2024-02-15T11:06:51;19.87;;;9.90;;
26277;SDS011;14000;52.056;8.510;2024-02-15T11:09:20;18.37;;;9.80;;
26277;SDS011;14000;52.056;8.510;2024-02-15T11:11:47;17.93;;;8.80;;
26277;SDS011;14000;52.056;8.510;2024-02-15T11:14:28;16.03;;;7.97;;
26277;SDS011;14000;52.056;8.510;2024-02-15T11:16:55;17.60;;;8.50;;
26277;SDS011;14000;52.056;8.510;2024-02-15T11:22:11;17.67;;;8.10;;
26277;SDS011;14000;52.056;8.510;2024-02-15T11:24:46;16.30;;;8.17;;
26277;SDS011;14000;52.056;8.510;2024-02-15T11:27:12;24.13;;;9.10;;
26277;SDS011;14000;52.056;8.510;2024-02-15T11:29:51;17.73;;;8.10;;
26277;SDS011;14000;52.056;8.510;2024-02-15T11:35:05;19.43;;;8.77;;
26277;SDS011;14000;52.056;8.510;2024-02-15T11:40:15;19.47;;;9.70;;
26277;SDS011;14000;52.056;8.510;2024-02-15T11:42:42;13.87;;;7.77;;
26277;SDS011;14000;52.056;8.510;2024-02-15T11:45:08;16.57;;;8.10;;
26277;SDS011;14000;52.056;8.510;2024-02-15T11:47:37;15.70;;;6.27;;
26277;SDS011;14000;52.056;8.510;2024-02-15T11:50:08;13.13;;;5.60;;
26277;SDS011;14000;52.056;8.510;2024-02-15T11:52:40;15.07;;;6.30;;
26277;SDS011;14000;52.056;8.510;2024-02-15T11:55:07;12.40;;;5.87;;
26277;SDS011;14000;52.056;8.510;2024-02-15T11:57:38;14.93;;;6.23;;
26277;SDS011;14000;52.056;8.510;2024-02-15T12:00:23;15.47;;;5.63;;
26277;SDS011;14000;52.056;8.510;2024-02-15T12:03:08;17.13;;;5.33;;
26277;SDS011;14000;52.056;8.510;2024-02-15T12:05:53;12.00;;;4.80;;
26277;SDS011;14000;52.056;8.510;2024-02-15T12:08:38;9.27;;;3.70;;
26277;SDS011;14000;52.056;8.510;2024-02-15T12:11:22;11.17;;;3.97;;
26277;SDS011;14000;52.056;8.510;2024-02-15T12:14:06;13.00;;;4.57;;
26277;SDS011;14000;52.056;8.510;2024-02-15T12:16:59;10.23;;;3.63;;
26277;SDS011;14000;52.056;8.510;2024-02-15T12:19:43;10.90;;;3.43;;
26277;SDS011;14000;52.056;8.510;2024-02-15T12:22:09;13.60;;;3.20;;
26277;SDS011;14000;52.056;8.510;2024-02-15T12:24:35;9.83;;;3.07;;
26277;SDS011;14000;52.056;8.510;2024-02-15T12:27:01;11.77;;;3.03;;
26277;SDS011;14000;52.056;8.510;2024-02-15T12:29:30;15.73;;;3.53;;
26277;SDS011;14000;52.056;8.510;2024-02-15T12:31:58;13.30;;;3.40;;
26277;SDS011;14000;52.056;8.510;2024-02-15T12:34:24;12.73;;;3.40;;
26277;SDS011;14000;52.056;8.510;2024-02-15T12:36:49;17.47;;;5.00;;
26277;SDS011;14000;52.056;8.510;2024-02-15T12:39:15;12.00;;;4.17;;
26277;SDS011;14000;52.056;8.510;2024-02-15T12:41:50;12.67;;;4.00;;
26277;SDS011;14000;52.056;8.510;2024-02-15T12:44:16;10.53;;;3.90;;
26277;SDS011;14000;52.056;8.510;2024-02-15T12:46:45;13.40;;;4.40;;
26277;SDS011;14000;52.056;8.510;2024-02-15T12:51:50;12.63;;;3.70;;
26277;SDS011;14000;52.056;8.510;2024-02-15T12:54:22;12.67;;;3.87;;
26277;SDS011;14000;52.056;8.510;2024-02-15T12:56:49;16.13;;;4.73;;
26277;SDS011;14000;52.056;8.510;2024-02-15T12:59:17;12.43;;;4.67;;
26277;SDS011;14000;52.056;8.510;2024-02-15T13:01:46;10.80;;;3.40;;
26277;SDS011;14000;52.056;8.510;2024-02-15T13:04:24;10.53;;;3.23;;
26277;SDS011;14000;52.056;8.510;2024-02-15T13:06:50;10.83;;;3.47;;
26277;SDS011;14000;52.056;8.510;2024-02-15T13:09:16;12.47;;;3.33;;
26277;SDS011;14000;52.056;8.510;2024-02-15T13:11:41;14.77;;;3.00;;
26277;SDS011;14000;52.056;8.510;2024-02-15T13:14:10;9.87;;;3.20;;
26277;SDS011;14000;52.056;8.510;2024-02-15T13:16:36;11.63;;;3.20;;
26277;SDS011;14000;52.056;8.510;2024-02-15T13:19:02;11.93;;;3.20;;
26277;SDS011;14000;52.056;8.510;2024-02-15T13:21:28;10.70;;;3.40;;
26277;SDS011;14000;52.056;8.510;2024-02-15T13:23:55;13.00;;;3.40;;
26277;SDS011;14000;52.056;8.510;2024-02-15T13:26:21;15.93;;;4.83;;
26277;SDS011;14000;52.056;8.510;2024-02-15T13:28:50;13.67;;;4.37;;
26277;SDS011;14000;52.056;8.510;2024-02-15T13:31:17;13.07;;;3.33;;
26277;SDS011;14000;52.056;8.510;2024-02-15T13:33:42;13.20;;;3.23;;
26277;SDS011;14000;52.056;8.510;2024-02-15T13:36:08;12.37;;;3.03;;
26277;SDS011;14000;52.056;8.510;2024-02-15T13:38:36;13.30;;;3.37;;
26277;SDS011;14000;52.056;8.510;2024-02-15T13:41:02;14.00;;;3.43;;
26277;SDS011;14000;52.056;8.510;2024-02-15T13:43:29;14.30;;;5.50;;
26277;SDS011;14000;52.056;8.510;2024-02-15T13:45:57;14.50;;;3.13;;
26277;SDS011;14000;52.056;8.510;2024-02-15T13:48:23;13.60;;;3.13;;
26277;SDS011;14000;52.056;8.510;2024-02-15T13:50:51;10.30;;;3.10;;
26277;SDS011;14000;52.056;8.510;2024-02-15T13:53:17;12.73;;;4.23;;
26277;SDS011;14000;52.056;8.510;2024-02-15T13:55:43;14.33;;;3.37;;
26277;SDS011;14000;52.056;8.510;2024-02-15T13:58:09;11.17;;;2.80;;
26277;SDS011;14000;52.056;8.510;2024-02-15T14:00:38;11.23;;;2.90;;
26277;SDS011;14000;52.056;8.510;2024-02-15T14:03:07;12.67;;;2.40;;
26277;SDS011;14000;52.056;8.510;2024-02-15T14:05:35;10.87;;;2.60;;
26277;SDS011;14000;52.056;8.510;2024-02-15T14:08:01;12.03;;;2.57;;
26277;SDS011;14000;52.056;8.510;2024-02-15T14:10:29;10.97;;;2.90;;
26277;SDS011;14000;52.056;8.510;2024-02-15T14:12:55;14.20;;;2.60;;
26277;SDS011;14000;52.056;8.510;2024-02-15T14:15:23;8.77;;;2.20;;
26277;SDS011;14000;52.056;8.510;2024-02-15T14:17:49;13.67;;;2.60;;
26277;SDS011;14000;52.056;8.510;2024-02-15T14:20:14;8.27;;;2.30;;
26277;SDS011;14000;52.056;8.510;2024-02-15T14:22:44;11.03;;;2.33;;
26277;SDS011;14000;52.056;8.510;2024-02-15T14:25:10;10.27;;;2.53;;
26277;SDS011;14000;52.056;8.510;2024-02-15T14:27:39;11.97;;;2.37;;
26277;SDS011;14000;52.056;8.510;2024-02-15T14:30:05;9.53;;;2.70;;
26277;SDS011;14000;52.056;8.510;2024-02-15T14:32:49;11.97;;;2.80;;
26277;SDS011;14000;52.056;8.510;2024-02-15T14:35:32;12.47;;;2.70;;
26277;SDS011;14000;52.056;8.510;2024-02-15T14:38:05;10.97;;;2.37;;
26277;SDS011;14000;52.056;8.510;2024-02-15T14:40:34;10.53;;;2.60;;
26277;SDS011;14000;52.056;8.510;2024-02-15T14:43:01;12.10;;;2.33;;
26277;SDS011;14000;52.056;8.510;2024-02-15T14:45:27;9.50;;;2.23;;